sensor_id;sensor_type;location;lat;lon;timestamp;pressure;altitude;pressure_sealevel;temperature;humidity
50774;BME280;36745;48.544;8.918;2023-02-28T00:02:17;97913.00;;;-1.34;55.36
50774;BME280;36745;48.544;8.918;2023-02-28T00:05:36;97919.72;;;-1.43;55.47
50774;BME280;36745;48.544;8.918;2023-02-28T00:08:56;97922.09;;;-1.26;55.38
50774;BME280;36745;48.544;8.918;2023-02-28T00:12:16;97921.75;;;-1.24;55.07
50774;BME280;36745;48.544;8.918;2023-02-28T00:15:36;97915.00;;;-1.46;55.63
50774;BME280;36745;48.544;8.918;2023-02-28T00:18:56;97920.84;;;-1.44;55.78
50774;BME280;36745;48.544;8.918;2023-02-28T00:22:17;97920.69;;;-1.36;55.82
50774;BME280;36745;48.544;8.918;2023-02-28T00:25:37;97915.88;;;-1.42;56.10
50774;BME280;36745;48.544;8.918;2023-02-28T00:28:57;97913.72;;;-1.37;56.29
50774;BME280;36745;48.544;8.918;2023-02-28T00:32:17;97920.31;;;-1.50;56.38
50774;BME280;36745;48.544;8.918;2023-02-28T00:35:38;97909.69;;;-1.43;56.31
50774;BME280;36745;48.544;8.918;2023-02-28T00:38:57;97914.81;;;-1.53;56.30
50774;BME280;36745;48.544;8.918;2023-02-28T00:42:17;97916.97;;;-1.59;56.72
50774;BME280;36745;48.544;8.918;2023-02-28T00:45:37;97913.31;;;-1.51;56.57
50774;BME280;36745;48.544;8.918;2023-02-28T00:48:57;97914.22;;;-1.47;56.39
50774;BME280;36745;48.544;8.918;2023-02-28T00:52:17;97915.78;;;-1.46;56.29
50774;BME280;36745;48.544;8.918;2023-02-28T00:55:36;97912.09;;;-1.69;56.78
50774;BME280;36745;48.544;8.918;2023-02-28T00:58:56;97903.63;;;-1.67;56.85
50774;BME280;36745;48.544;8.918;2023-02-28T01:02:16;97915.97;;;-1.82;56.64
50774;BME280;36745;48.544;8.918;2023-02-28T01:05:37;97911.78;;;-1.80;56.82
50774;BME280;36745;48.544;8.918;2023-02-28T01:08:57;97905.09;;;-1.70;57.24
50774;BME280;36745;48.544;8.918;2023-02-28T01:12:17;97909.63;;;-1.74;57.39
50774;BME280;36745;48.544;8.918;2023-02-28T01:15:40;97904.22;;;-1.74;57.02
50774;BME280;36745;48.544;8.918;2023-02-28T01:19:01;97899.91;;;-1.91;57.56
50774;BME280;36745;48.544;8.918;2023-02-28T01:22:21;97899.81;;;-1.94;57.57
50774;BME280;36745;48.544;8.918;2023-02-28T01:25:40;97899.56;;;-1.89;57.71
50774;BME280;36745;48.544;8.918;2023-02-28T01:29:00;97908.75;;;-1.78;57.64
50774;BME280;36745;48.544;8.918;2023-02-28T01:32:20;97902.34;;;-1.86;57.70
50774;BME280;36745;48.544;8.918;2023-02-28T01:35:40;97902.44;;;-1.82;58.03
50774;BME280;36745;48.544;8.918;2023-02-28T01:39:00;97901.94;;;-1.72;57.92
50774;BME280;36745;48.544;8.918;2023-02-28T01:42:20;97893.31;;;-1.78;57.89
50774;BME280;36745;48.544;8.918;2023-02-28T01:45:40;97888.00;;;-1.74;57.46
50774;BME280;36745;48.544;8.918;2023-02-28T01:49:11;97892.47;;;-1.94;58.02
50774;BME280;36745;48.544;8.918;2023-02-28T01:52:33;97885.69;;;-1.88;58.42
50774;BME280;36745;48.544;8.918;2023-02-28T01:55:54;97888.50;;;-1.84;57.87
50774;BME280;36745;48.544;8.918;2023-02-28T01:59:21;97886.94;;;-1.85;58.12
50774;BME280;36745;48.544;8.918;2023-02-28T02:02:45;97882.84;;;-1.79;57.78
50774;BME280;36745;48.544;8.918;2023-02-28T02:06:05;97878.38;;;-1.87;58.40
50774;BME280;36745;48.544;8.918;2023-02-28T02:09:28;97883.09;;;-1.84;58.04
50774;BME280;36745;48.544;8.918;2023-02-28T02:12:55;97882.81;;;-1.95;58.32
50774;BME280;36745;48.544;8.918;2023-02-28T02:24:17;97866.41;;;-2.02;59.57
50774;BME280;36745;48.544;8.918;2023-02-28T02:31:49;97863.38;;;-2.00;59.22
50774;BME280;36745;48.544;8.918;2023-02-28T02:42:37;97867.69;;;-2.12;60.28
50774;BME280;36745;48.544;8.918;2023-02-28T02:46:04;97856.47;;;-1.98;60.04
50774;BME280;36745;48.544;8.918;2023-02-28T02:49:30;97854.63;;;-2.09;60.32
50774;BME280;36745;48.544;8.918;2023-02-28T02:52:55;97853.94;;;-2.06;60.74
50774;BME280;36745;48.544;8.918;2023-02-28T02:56:21;97870.25;;;-2.03;60.95
50774;BME280;36745;48.544;8.918;2023-02-28T02:59:43;97870.31;;;-1.99;60.47
50774;BME280;36745;48.544;8.918;2023-02-28T03:03:04;97873.28;;;-2.04;61.03
50774;BME280;36745;48.544;8.918;2023-02-28T03:06:25;97879.66;;;-1.97;61.33
50774;BME280;36745;48.544;8.918;2023-02-28T03:09:53;97878.22;;;-1.94;61.17
50774;BME280;36745;48.544;8.918;2023-02-28T03:28:30;97865.81;;;-1.95;61.89
50774;BME280;36745;48.544;8.918;2023-02-28T03:32:04;97864.81;;;-1.75;61.30
50774;BME280;36745;48.544;8.918;2023-02-28T03:35:28;97856.38;;;-1.74;61.12
50774;BME280;36745;48.544;8.918;2023-02-28T03:39:01;97861.66;;;-1.77;61.53
50774;BME280;36745;48.544;8.918;2023-02-28T03:42:27;97856.44;;;-1.70;61.88
50774;BME280;36745;48.544;8.918;2023-02-28T03:45:48;97854.25;;;-1.80;61.85
50774;BME280;36745;48.544;8.918;2023-02-28T03:49:15;97855.53;;;-2.05;62.43
50774;BME280;36745;48.544;8.918;2023-02-28T03:52:42;97859.38;;;-2.19;62.72
50774;BME280;36745;48.544;8.918;2023-02-28T03:56:19;97858.25;;;-2.18;63.46
50774;BME280;36745;48.544;8.918;2023-02-28T03:59:44;97862.88;;;-2.18;63.71
50774;BME280;36745;48.544;8.918;2023-02-28T04:03:05;97864.50;;;-2.01;63.48
50774;BME280;36745;48.544;8.918;2023-02-28T04:06:25;97867.28;;;-1.98;63.21
50774;BME280;36745;48.544;8.918;2023-02-28T04:09:47;97857.25;;;-1.97;63.88
50774;BME280;36745;48.544;8.918;2023-02-28T04:13:06;97866.91;;;-2.12;64.22
50774;BME280;36745;48.544;8.918;2023-02-28T04:16:26;97857.06;;;-2.04;64.40
50774;BME280;36745;48.544;8.918;2023-02-28T04:19:47;97860.84;;;-1.93;64.26
50774;BME280;36745;48.544;8.918;2023-02-28T04:23:06;97860.31;;;-1.99;64.68
50774;BME280;36745;48.544;8.918;2023-02-28T04:26:31;97860.22;;;-2.02;64.88
50774;BME280;36745;48.544;8.918;2023-02-28T04:29:55;97863.00;;;-1.99;64.60
50774;BME280;36745;48.544;8.918;2023-02-28T04:33:15;97853.34;;;-2.00;65.08
50774;BME280;36745;48.544;8.918;2023-02-28T04:36:35;97856.19;;;-2.08;65.27
50774;BME280;36745;48.544;8.918;2023-02-28T04:39:57;97858.63;;;-2.03;65.23
50774;BME280;36745;48.544;8.918;2023-02-28T04:43:17;97861.28;;;-1.91;65.50
50774;BME280;36745;48.544;8.918;2023-02-28T04:46:37;97858.13;;;-1.93;65.41
50774;BME280;36745;48.544;8.918;2023-02-28T04:49:57;97863.38;;;-2.00;66.08
50774;BME280;36745;48.544;8.918;2023-02-28T04:53:17;97860.72;;;-1.85;65.75
50774;BME280;36745;48.544;8.918;2023-02-28T04:56:37;97864.38;;;-1.77;65.72
50774;BME280;36745;48.544;8.918;2023-02-28T04:59:57;97863.03;;;-1.83;66.14
50774;BME280;36745;48.544;8.918;2023-02-28T05:03:16;97867.16;;;-1.89;66.61
50774;BME280;36745;48.544;8.918;2023-02-28T05:06:36;97869.41;;;-1.91;66.89
50774;BME280;36745;48.544;8.918;2023-02-28T05:09:56;97869.44;;;-1.76;66.72
50774;BME280;36745;48.544;8.918;2023-02-28T05:13:16;97872.16;;;-1.60;66.63
50774;BME280;36745;48.544;8.918;2023-02-28T05:16:36;97874.13;;;-1.73;66.44
50774;BME280;36745;48.544;8.918;2023-02-28T05:19:55;97871.97;;;-1.67;66.75
50774;BME280;36745;48.544;8.918;2023-02-28T05:23:17;97877.63;;;-1.72;67.25
50774;BME280;36745;48.544;8.918;2023-02-28T05:26:39;97883.75;;;-1.59;67.25
50774;BME280;36745;48.544;8.918;2023-02-28T05:29:59;97879.44;;;-1.76;67.88
50774;BME280;36745;48.544;8.918;2023-02-28T05:33:22;97876.50;;;-1.71;68.32
50774;BME280;36745;48.544;8.918;2023-02-28T05:36:42;97876.69;;;-1.64;68.21
50774;BME280;36745;48.544;8.918;2023-02-28T05:40:02;97868.13;;;-1.66;68.03
50774;BME280;36745;48.544;8.918;2023-02-28T05:43:25;97880.72;;;-1.58;68.10
50774;BME280;36745;48.544;8.918;2023-02-28T05:46:44;97864.66;;;-1.51;68.60
50774;BME280;36745;48.544;8.918;2023-02-28T05:50:05;97869.38;;;-1.48;68.10
50774;BME280;36745;48.544;8.918;2023-02-28T05:53:25;97879.31;;;-1.52;68.29
50774;BME280;36745;48.544;8.918;2023-02-28T05:56:45;97866.06;;;-1.57;68.78
50774;BME280;36745;48.544;8.918;2023-02-28T06:00:06;97862.41;;;-1.49;68.40
50774;BME280;36745;48.544;8.918;2023-02-28T06:03:26;97877.66;;;-1.56;68.91
50774;BME280;36745;48.544;8.918;2023-02-28T06:06:49;97877.31;;;-1.55;69.34
50774;BME280;36745;48.544;8.918;2023-02-28T06:10:11;97879.66;;;-1.53;69.79
50774;BME280;36745;48.544;8.918;2023-02-28T06:13:30;97885.34;;;-1.43;69.69
50774;BME280;36745;48.544;8.918;2023-02-28T06:16:50;97893.47;;;-1.43;69.81
50774;BME280;36745;48.544;8.918;2023-02-28T06:20:11;97892.41;;;-1.54;70.48
50774;BME280;36745;48.544;8.918;2023-02-28T06:23:32;97895.09;;;-1.54;70.79
50774;BME280;36745;48.544;8.918;2023-02-28T06:26:52;97910.81;;;-1.44;70.86
50774;BME280;36745;48.544;8.918;2023-02-28T06:30:12;97905.66;;;-1.49;70.32
50774;BME280;36745;48.544;8.918;2023-02-28T06:33:32;97910.47;;;-1.42;70.41
50774;BME280;36745;48.544;8.918;2023-02-28T06:36:52;97904.72;;;-1.41;70.13
50774;BME280;36745;48.544;8.918;2023-02-28T06:40:12;97904.53;;;-1.32;70.17
50774;BME280;36745;48.544;8.918;2023-02-28T06:43:39;97911.06;;;-1.49;70.68
50774;BME280;36745;48.544;8.918;2023-02-28T06:46:59;97915.97;;;-1.39;70.70
50774;BME280;36745;48.544;8.918;2023-02-28T06:50:19;97920.84;;;-1.29;69.95
50774;BME280;36745;48.544;8.918;2023-02-28T06:53:40;97910.56;;;-1.39;70.74
50774;BME280;36745;48.544;8.918;2023-02-28T06:57:00;97921.56;;;-1.32;70.48
50774;BME280;36745;48.544;8.918;2023-02-28T07:00:20;97921.63;;;-1.28;70.15
50774;BME280;36745;48.544;8.918;2023-02-28T07:03:40;97924.72;;;-1.30;70.11
50774;BME280;36745;48.544;8.918;2023-02-28T07:07:00;97929.41;;;-1.27;70.15
50774;BME280;36745;48.544;8.918;2023-02-28T07:10:19;97927.41;;;-1.30;69.42
50774;BME280;36745;48.544;8.918;2023-02-28T07:13:39;97922.16;;;-1.38;70.60
50774;BME280;36745;48.544;8.918;2023-02-28T07:16:59;97930.13;;;-1.30;70.65
50774;BME280;36745;48.544;8.918;2023-02-28T07:20:19;97923.03;;;-1.18;70.50
50774;BME280;36745;48.544;8.918;2023-02-28T07:23:39;97930.22;;;-1.10;70.75
50774;BME280;36745;48.544;8.918;2023-02-28T07:27:00;97928.38;;;-1.06;69.94
50774;BME280;36745;48.544;8.918;2023-02-28T07:30:23;97932.38;;;-1.00;68.95
50774;BME280;36745;48.544;8.918;2023-02-28T07:33:43;97927.94;;;-1.08;70.31
50774;BME280;36745;48.544;8.918;2023-02-28T07:37:03;97926.38;;;-1.09;69.61
50774;BME280;36745;48.544;8.918;2023-02-28T07:40:27;97922.09;;;-1.10;69.69
50774;BME280;36745;48.544;8.918;2023-02-28T07:43:47;97937.88;;;-0.97;68.62
50774;BME280;36745;48.544;8.918;2023-02-28T07:47:08;97942.88;;;-1.14;69.15
50774;BME280;36745;48.544;8.918;2023-02-28T07:50:28;97932.72;;;-0.86;68.68
50774;BME280;36745;48.544;8.918;2023-02-28T07:53:51;97935.53;;;-0.98;69.26
50774;BME280;36745;48.544;8.918;2023-02-28T07:57:11;97933.06;;;-0.72;68.56
50774;BME280;36745;48.544;8.918;2023-02-28T08:00:31;97936.22;;;-0.86;67.91
50774;BME280;36745;48.544;8.918;2023-02-28T08:03:51;97940.41;;;-0.88;68.58
50774;BME280;36745;48.544;8.918;2023-02-28T08:10:47;97952.47;;;-1.01;68.50
50774;BME280;36745;48.544;8.918;2023-02-28T08:14:07;97949.84;;;-1.13;68.24
50774;BME280;36745;48.544;8.918;2023-02-28T08:17:27;97959.25;;;-1.07;68.08
50774;BME280;36745;48.544;8.918;2023-02-28T08:20:46;97958.06;;;-0.94;68.24
50774;BME280;36745;48.544;8.918;2023-02-28T08:24:06;97963.47;;;-0.94;67.64
50774;BME280;36745;48.544;8.918;2023-02-28T08:27:29;97965.19;;;-0.86;68.65
50774;BME280;36745;48.544;8.918;2023-02-28T08:30:49;97954.56;;;-0.79;67.99
50774;BME280;36745;48.544;8.918;2023-02-28T08:34:13;97958.56;;;-0.73;68.08
50774;BME280;36745;48.544;8.918;2023-02-28T08:37:34;97959.44;;;-0.69;68.16
50774;BME280;36745;48.544;8.918;2023-02-28T08:40:58;97955.78;;;-0.61;67.86
50774;BME280;36745;48.544;8.918;2023-02-28T08:44:17;97959.06;;;-0.52;67.65
50774;BME280;36745;48.544;8.918;2023-02-28T08:47:37;97968.19;;;-0.60;67.24
50774;BME280;36745;48.544;8.918;2023-02-28T08:51:05;97970.34;;;-0.50;67.59
50774;BME280;36745;48.544;8.918;2023-02-28T08:54:28;97972.34;;;-0.47;67.71
50774;BME280;36745;48.544;8.918;2023-02-28T08:57:50;97974.09;;;-0.38;67.79
50774;BME280;36745;48.544;8.918;2023-02-28T09:01:23;97975.81;;;-0.30;66.82
50774;BME280;36745;48.544;8.918;2023-02-28T09:04:50;97975.31;;;-0.52;67.13
50774;BME280;36745;48.544;8.918;2023-02-28T09:08:13;97985.25;;;-0.40;67.55
50774;BME280;36745;48.544;8.918;2023-02-28T09:11:34;97982.72;;;-0.33;66.53
50774;BME280;36745;48.544;8.918;2023-02-28T09:14:54;97977.38;;;-0.29;66.69
50774;BME280;36745;48.544;8.918;2023-02-28T09:18:19;97978.34;;;-0.37;66.65
50774;BME280;36745;48.544;8.918;2023-02-28T09:21:58;97985.47;;;-0.14;67.21
50774;BME280;36745;48.544;8.918;2023-02-28T09:25:19;97983.81;;;-0.18;66.04
50774;BME280;36745;48.544;8.918;2023-02-28T09:28:39;97990.53;;;-0.12;66.80
50774;BME280;36745;48.544;8.918;2023-02-28T09:31:59;97987.91;;;-0.09;66.16
50774;BME280;36745;48.544;8.918;2023-02-28T09:35:27;97983.84;;;0.01;65.58
50774;BME280;36745;48.544;8.918;2023-02-28T09:39:08;97989.53;;;-0.04;65.80
50774;BME280;36745;48.544;8.918;2023-02-28T09:42:31;97988.34;;;0.13;65.25
50774;BME280;36745;48.544;8.918;2023-02-28T09:53:47;97986.78;;;0.12;65.20
50774;BME280;36745;48.544;8.918;2023-02-28T10:00:42;98003.72;;;0.24;64.81
50774;BME280;36745;48.544;8.918;2023-02-28T10:08:07;98002.25;;;0.11;64.56
50774;BME280;36745;48.544;8.918;2023-02-28T10:11:32;98003.88;;;0.31;63.44
50774;BME280;36745;48.544;8.918;2023-02-28T10:14:55;98006.44;;;0.24;63.65
50774;BME280;36745;48.544;8.918;2023-02-28T10:18:23;98005.66;;;0.43;63.00
50774;BME280;36745;48.544;8.918;2023-02-28T10:21:49;98002.00;;;0.35;63.08
50774;BME280;36745;48.544;8.918;2023-02-28T10:25:21;98007.94;;;0.41;63.41
50774;BME280;36745;48.544;8.918;2023-02-28T10:28:42;98014.84;;;0.58;64.00
50774;BME280;36745;48.544;8.918;2023-02-28T10:32:02;98017.63;;;0.80;63.79
50774;BME280;36745;48.544;8.918;2023-02-28T10:35:25;98016.84;;;0.80;63.98
50774;BME280;36745;48.544;8.918;2023-02-28T10:38:46;98016.69;;;0.73;61.73
50774;BME280;36745;48.544;8.918;2023-02-28T10:42:26;98002.13;;;0.81;63.29
50774;BME280;36745;48.544;8.918;2023-02-28T10:49:25;98015.84;;;1.11;62.35
50774;BME280;36745;48.544;8.918;2023-02-28T10:52:45;98011.06;;;1.04;61.79
50774;BME280;36745;48.544;8.918;2023-02-28T10:59:30;98017.34;;;1.08;60.84
50774;BME280;36745;48.544;8.918;2023-02-28T11:02:50;98015.63;;;0.97;61.06
50774;BME280;36745;48.544;8.918;2023-02-28T11:06:30;98025.78;;;1.03;60.87
50774;BME280;36745;48.544;8.918;2023-02-28T11:09:52;98019.78;;;1.13;60.74
50774;BME280;36745;48.544;8.918;2023-02-28T11:13:17;98029.47;;;1.14;60.41
50774;BME280;36745;48.544;8.918;2023-02-28T11:16:38;98017.84;;;1.14;60.21
50774;BME280;36745;48.544;8.918;2023-02-28T11:20:06;98033.19;;;1.25;60.90
50774;BME280;36745;48.544;8.918;2023-02-28T11:23:29;98027.75;;;1.25;59.57
50774;BME280;36745;48.544;8.918;2023-02-28T11:26:50;98021.91;;;1.23;58.98
50774;BME280;36745;48.544;8.918;2023-02-28T11:30:28;98022.66;;;1.01;58.84
50774;BME280;36745;48.544;8.918;2023-02-28T11:33:54;98027.50;;;1.11;60.47
50774;BME280;36745;48.544;8.918;2023-02-28T11:37:18;98024.72;;;1.31;59.89
50774;BME280;36745;48.544;8.918;2023-02-28T11:44:26;98024.63;;;1.23;59.65
50774;BME280;36745;48.544;8.918;2023-02-28T11:51:48;98017.53;;;1.19;58.76
50774;BME280;36745;48.544;8.918;2023-02-28T12:02:54;98009.09;;;1.47;60.15
50774;BME280;36745;48.544;8.918;2023-02-28T12:06:38;98007.78;;;1.86;59.13
50774;BME280;36745;48.544;8.918;2023-02-28T12:13:48;98009.97;;;1.77;58.44
50774;BME280;36745;48.544;8.918;2023-02-28T12:17:29;98004.81;;;2.25;58.41
50774;BME280;36745;48.544;8.918;2023-02-28T12:21:04;98009.44;;;2.54;57.08
50774;BME280;36745;48.544;8.918;2023-02-28T12:28:00;97998.47;;;4.23;59.13
50774;BME280;36745;48.544;8.918;2023-02-28T12:31:24;97994.41;;;3.89;54.97
50774;BME280;36745;48.544;8.918;2023-02-28T12:34:54;97995.91;;;3.35;56.69
50774;BME280;36745;48.544;8.918;2023-02-28T12:38:18;97994.44;;;3.01;55.62
50774;BME280;36745;48.544;8.918;2023-02-28T12:42:12;97984.94;;;4.37;58.58
50774;BME280;36745;48.544;8.918;2023-02-28T12:45:39;97982.28;;;4.65;55.00
50774;BME280;36745;48.544;8.918;2023-02-28T12:50:05;97972.81;;;4.31;54.13
50774;BME280;36745;48.544;8.918;2023-02-28T12:53:05;97973.84;;;5.63;54.48
50774;BME280;36745;48.544;8.918;2023-02-28T12:59:56;97956.50;;;6.44;53.12
50774;BME280;36745;48.544;8.918;2023-02-28T13:10:13;97955.09;;;5.29;49.09
50774;BME280;36745;48.544;8.918;2023-02-28T13:13:36;97948.09;;;5.18;51.65
50774;BME280;36745;48.544;8.918;2023-02-28T13:17:11;97955.91;;;5.33;50.04
50774;BME280;36745;48.544;8.918;2023-02-28T13:20:35;97951.88;;;4.71;50.46
50774;BME280;36745;48.544;8.918;2023-02-28T13:23:58;97948.28;;;4.45;50.47
50774;BME280;36745;48.544;8.918;2023-02-28T13:34:16;97941.03;;;5.20;49.54
50774;BME280;36745;48.544;8.918;2023-02-28T13:37:42;97942.50;;;4.64;50.20
50774;BME280;36745;48.544;8.918;2023-02-28T13:48:24;97946.97;;;4.11;50.98
50774;BME280;36745;48.544;8.918;2023-02-28T13:51:46;97947.25;;;3.92;51.24
50774;BME280;36745;48.544;8.918;2023-02-28T13:55:25;97938.28;;;3.91;52.07
50774;BME280;36745;48.544;8.918;2023-02-28T13:58:55;97942.00;;;4.34;51.87
50774;BME280;36745;48.544;8.918;2023-02-28T14:09:37;97956.13;;;3.78;51.37
50774;BME280;36745;48.544;8.918;2023-02-28T14:13:11;97943.88;;;4.16;52.21
50774;BME280;36745;48.544;8.918;2023-02-28T14:16:44;97955.78;;;4.62;51.69
50774;BME280;36745;48.544;8.918;2023-02-28T14:20:15;97936.16;;;4.36;51.27
50774;BME280;36745;48.544;8.918;2023-02-28T14:38:20;97934.13;;;4.15;51.19
50774;BME280;36745;48.544;8.918;2023-02-28T14:41:43;97945.50;;;4.31;51.98
50774;BME280;36745;48.544;8.918;2023-02-28T14:45:04;97941.25;;;4.41;51.60
50774;BME280;36745;48.544;8.918;2023-02-28T14:48:24;97942.41;;;4.43;51.40
50774;BME280;36745;48.544;8.918;2023-02-28T14:51:45;97934.59;;;4.38;51.30
50774;BME280;36745;48.544;8.918;2023-02-28T14:55:12;97934.19;;;4.26;51.60
50774;BME280;36745;48.544;8.918;2023-02-28T14:58:33;97934.59;;;4.35;52.05
50774;BME280;36745;48.544;8.918;2023-02-28T15:02:14;97927.66;;;4.51;51.75
50774;BME280;36745;48.544;8.918;2023-02-28T15:05:34;97936.63;;;4.52;51.79
50774;BME280;36745;48.544;8.918;2023-02-28T15:09:15;97936.97;;;4.36;51.55
50774;BME280;36745;48.544;8.918;2023-02-28T15:12:35;97937.72;;;4.33;51.92
50774;BME280;36745;48.544;8.918;2023-02-28T15:16:01;97937.78;;;4.47;52.36
50774;BME280;36745;48.544;8.918;2023-02-28T15:19:32;97941.25;;;4.44;51.74
50774;BME280;36745;48.544;8.918;2023-02-28T15:22:55;97931.47;;;4.33;51.69
50774;BME280;36745;48.544;8.918;2023-02-28T15:26:17;97932.25;;;4.26;51.68
50774;BME280;36745;48.544;8.918;2023-02-28T15:29:50;97932.66;;;4.32;51.72
50774;BME280;36745;48.544;8.918;2023-02-28T15:36:35;97925.16;;;4.18;51.96
50774;BME280;36745;48.544;8.918;2023-02-28T15:40:05;97936.03;;;4.11;51.54
50774;BME280;36745;48.544;8.918;2023-02-28T15:43:30;97938.34;;;4.02;51.27
50774;BME280;36745;48.544;8.918;2023-02-28T15:47:22;97942.22;;;4.01;52.17
50774;BME280;36745;48.544;8.918;2023-02-28T15:50:42;97939.13;;;4.06;52.09
50774;BME280;36745;48.544;8.918;2023-02-28T15:54:12;97945.38;;;3.99;52.07
50774;BME280;36745;48.544;8.918;2023-02-28T15:57:34;97942.28;;;4.04;51.80
50774;BME280;36745;48.544;8.918;2023-02-28T16:01:05;97935.97;;;3.97;51.71
50774;BME280;36745;48.544;8.918;2023-02-28T16:04:26;97942.22;;;3.94;52.07
50774;BME280;36745;48.544;8.918;2023-02-28T16:07:49;97941.06;;;4.02;52.06
50774;BME280;36745;48.544;8.918;2023-02-28T16:11:10;97934.44;;;3.99;51.61
50774;BME280;36745;48.544;8.918;2023-02-28T16:14:30;97943.06;;;4.08;51.71
50774;BME280;36745;48.544;8.918;2023-02-28T16:17:50;97945.38;;;3.99;52.07
50774;BME280;36745;48.544;8.918;2023-02-28T16:21:10;97945.69;;;3.87;52.00
50774;BME280;36745;48.544;8.918;2023-02-28T16:24:30;97955.38;;;3.81;52.09
50774;BME280;36745;48.544;8.918;2023-02-28T16:27:52;97953.06;;;3.87;52.11
50774;BME280;36745;48.544;8.918;2023-02-28T16:31:16;97954.66;;;3.88;52.41
50774;BME280;36745;48.544;8.918;2023-02-28T16:34:37;97951.50;;;3.89;52.29
50774;BME280;36745;48.544;8.918;2023-02-28T16:37:57;97961.53;;;3.71;51.90
50774;BME280;36745;48.544;8.918;2023-02-28T16:41:22;97965.75;;;3.61;52.27
50774;BME280;36745;48.544;8.918;2023-02-28T16:44:43;97960.75;;;3.67;52.63
50774;BME280;36745;48.544;8.918;2023-02-28T16:48:03;97966.13;;;3.56;52.79
50774;BME280;36745;48.544;8.918;2023-02-28T16:51:23;97968.41;;;3.51;52.49
50774;BME280;36745;48.544;8.918;2023-02-28T16:54:43;97968.34;;;3.40;52.58
50774;BME280;36745;48.544;8.918;2023-02-28T16:58:03;97974.09;;;3.35;52.82
50774;BME280;36745;48.544;8.918;2023-02-28T17:01:23;97971.72;;;3.30;52.34
50774;BME280;36745;48.544;8.918;2023-02-28T17:04:43;97981.44;;;3.24;52.70
50774;BME280;36745;48.544;8.918;2023-02-28T17:08:02;97978.34;;;3.29;52.99
50774;BME280;36745;48.544;8.918;2023-02-28T17:11:22;97980.59;;;3.20;52.91
50774;BME280;36745;48.544;8.918;2023-02-28T17:14:43;97998.09;;;3.19;52.74
50774;BME280;36745;48.544;8.918;2023-02-28T17:18:04;97992.50;;;3.05;52.89
50774;BME280;36745;48.544;8.918;2023-02-28T17:21:25;98002.81;;;2.85;53.28
50774;BME280;36745;48.544;8.918;2023-02-28T17:24:44;98002.44;;;2.86;53.65
50774;BME280;36745;48.544;8.918;2023-02-28T17:28:04;98000.03;;;2.81;53.61
50774;BME280;36745;48.544;8.918;2023-02-28T17:31:25;98006.56;;;2.73;53.76
50774;BME280;36745;48.544;8.918;2023-02-28T17:34:45;98006.56;;;2.73;53.69
50774;BME280;36745;48.544;8.918;2023-02-28T17:38:14;98014.25;;;2.64;54.28
50774;BME280;36745;48.544;8.918;2023-02-28T17:41:35;98014.97;;;2.61;53.70
50774;BME280;36745;48.544;8.918;2023-02-28T17:44:54;98016.56;;;2.62;53.58
50774;BME280;36745;48.544;8.918;2023-02-28T17:48:15;98025.06;;;2.57;54.01
50774;BME280;36745;48.544;8.918;2023-02-28T17:51:36;98020.25;;;2.47;53.88
50774;BME280;36745;48.544;8.918;2023-02-28T17:54:56;98031.03;;;2.40;54.26
50774;BME280;36745;48.544;8.918;2023-02-28T17:58:16;98031.66;;;2.26;54.24
50774;BME280;36745;48.544;8.918;2023-02-28T18:01:37;98026.81;;;2.16;54.96
50774;BME280;36745;48.544;8.918;2023-02-28T18:04:57;98037.56;;;2.05;54.97
50774;BME280;36745;48.544;8.918;2023-02-28T18:08:17;98028.25;;;2.06;54.78
50774;BME280;36745;48.544;8.918;2023-02-28T18:11:38;98030.47;;;1.97;55.60
50774;BME280;36745;48.544;8.918;2023-02-28T18:15:03;98033.59;;;1.99;55.43
50774;BME280;36745;48.544;8.918;2023-02-28T18:18:23;98033.50;;;1.92;55.96
50774;BME280;36745;48.544;8.918;2023-02-28T18:21:44;98033.81;;;1.87;56.30
50774;BME280;36745;48.544;8.918;2023-02-28T18:25:05;98043.41;;;1.81;56.68
50774;BME280;36745;48.544;8.918;2023-02-28T18:28:27;98037.63;;;1.83;56.64
50774;BME280;36745;48.544;8.918;2023-02-28T18:31:47;98032.22;;;1.86;56.42
50774;BME280;36745;48.544;8.918;2023-02-28T18:35:07;98037.97;;;1.81;56.84
50774;BME280;36745;48.544;8.918;2023-02-28T18:38:27;98045.09;;;1.89;55.92
50774;BME280;36745;48.544;8.918;2023-02-28T18:41:47;98042.28;;;1.82;56.40
50774;BME280;36745;48.544;8.918;2023-02-28T18:45:07;98041.13;;;1.83;56.23
50774;BME280;36745;48.544;8.918;2023-02-28T18:48:27;98048.34;;;1.72;56.91
50774;BME280;36745;48.544;8.918;2023-02-28T18:51:47;98040.88;;;1.69;56.67
50774;BME280;36745;48.544;8.918;2023-02-28T18:55:07;98044.72;;;1.64;56.86
50774;BME280;36745;48.544;8.918;2023-02-28T18:58:29;98039.41;;;1.72;57.07
50774;BME280;36745;48.544;8.918;2023-02-28T19:01:52;98039.44;;;1.75;56.68
50774;BME280;36745;48.544;8.918;2023-02-28T19:05:13;98040.06;;;1.65;56.92
50774;BME280;36745;48.544;8.918;2023-02-28T19:08:33;98036.06;;;1.59;56.71
50774;BME280;36745;48.544;8.918;2023-02-28T19:11:52;98040.25;;;1.53;57.17
50774;BME280;36745;48.544;8.918;2023-02-28T19:15:12;98034.44;;;1.54;57.05
50774;BME280;36745;48.544;8.918;2023-02-28T19:18:32;98038.66;;;1.52;56.94
50774;BME280;36745;48.544;8.918;2023-02-28T19:21:52;98043.69;;;1.50;57.07
50774;BME280;36745;48.544;8.918;2023-02-28T19:25:12;98039.72;;;1.44;57.14
50774;BME280;36745;48.544;8.918;2023-02-28T19:28:31;98042.78;;;1.42;57.98
50774;BME280;36745;48.544;8.918;2023-02-28T19:31:51;98039.72;;;1.44;57.41
50774;BME280;36745;48.544;8.918;2023-02-28T19:35:11;98037.22;;;1.35;57.90
50774;BME280;36745;48.544;8.918;2023-02-28T19:38:31;98038.31;;;1.31;57.45
50774;BME280;36745;48.544;8.918;2023-02-28T19:41:51;98045.94;;;1.44;57.64
50774;BME280;36745;48.544;8.918;2023-02-28T19:45:11;98050.44;;;1.37;57.59
50774;BME280;36745;48.544;8.918;2023-02-28T19:48:33;98042.28;;;1.37;57.41
50774;BME280;36745;48.544;8.918;2023-02-28T19:51:53;98039.56;;;1.37;57.77
50774;BME280;36745;48.544;8.918;2023-02-28T19:55:12;98044.22;;;1.36;57.10
50774;BME280;36745;48.544;8.918;2023-02-28T19:58:33;98040.19;;;1.26;57.13
50774;BME280;36745;48.544;8.918;2023-02-28T20:01:53;98040.25;;;1.07;57.85
50774;BME280;36745;48.544;8.918;2023-02-28T20:05:15;98039.56;;;0.91;58.21
50774;BME280;36745;48.544;8.918;2023-02-28T20:08:38;98039.38;;;1.03;57.70
50774;BME280;36745;48.544;8.918;2023-02-28T20:11:57;98031.81;;;0.93;58.11
50774;BME280;36745;48.544;8.918;2023-02-28T20:15:21;98028.91;;;0.82;58.46